Time;durP1;ratioP1;P1;durP2;ratioP2;P2;SDS_P1;SDS_P2;PMS_P1;PMS_P2;Temp;Humidity;BMP_temperature;BMP_pressure;BME280_temperature;BME280_humidity;BME280_pressure;Samples;Min_cycle;Max_cycle;Signal;HPM_P1;HPM_P2
2024/01/11 00:01:14;;;;;;;23.70;21.75;;;;;;;;;;5102377;28;20035;-87
2024/01/11 00:03:58;;;;;;;19.30;17.75;;;;;;;;;;5093518;28;20085;-87
2024/01/11 00:06:42;;;;;;;19.40;17.90;;;;;;;;;;5093396;28;20088;-87
2024/01/11 00:16:39;;;;;;;19.75;17.75;;;;;;;;;;5122920;28;20060;-88
2024/01/11 00:19:24;;;;;;;22.02;19.90;;;;;;;;;;5105626;28;20061;-88
2024/01/11 00:22:09;;;;;;;20.80;18.77;;;;;;;;;;5105775;28;20042;-89
2024/01/11 00:24:54;;;;;;;21.45;19.52;;;;;;;;;;5105758;28;20519;-88
2024/01/11 00:27:38;;;;;;;20.35;19.02;;;;;;;;;;5104517;28;20051;-91
2024/01/11 00:30:23;;;;;;;21.63;19.38;;;;;;;;;;5105236;28;20042;-90
2024/01/11 00:33:10;;;;;;;25.35;21.58;;;;;;;;;;5106379;28;20035;-90
2024/01/11 00:35:54;;;;;;;22.48;20.23;;;;;;;;;;5108440;28;20061;-90
2024/01/11 00:38:45;;;;;;;23.73;20.15;;;;;;;;;;5106282;28;20080;-90
2024/01/11 00:41:29;;;;;;;22.00;20.10;;;;;;;;;;5106779;28;20047;-89
2024/01/11 00:44:21;;;;;;;22.17;20.52;;;;;;;;;;5107609;28;20129;-90
2024/01/11 00:47:05;;;;;;;25.02;22.58;;;;;;;;;;5105491;28;20060;-90
2024/01/11 00:49:52;;;;;;;22.65;20.50;;;;;;;;;;5107802;28;20050;-89
2024/01/11 00:52:44;;;;;;;22.00;20.10;;;;;;;;;;5107172;28;20096;-90
2024/01/11 00:55:38;;;;;;;22.40;20.27;;;;;;;;;;5109010;28;20042;-88
2024/01/11 00:58:24;;;;;;;23.73;21.42;;;;;;;;;;5111460;28;20083;-90
2024/01/11 01:01:09;;;;;;;23.88;21.73;;;;;;;;;;5107700;28;20043;-91
2024/01/11 01:03:54;;;;;;;24.35;22.02;;;;;;;;;;5104494;28;20061;-89
2024/01/11 01:06:40;;;;;;;26.85;24.58;;;;;;;;;;5103685;28;20066;-88
2024/01/11 01:09:35;;;;;;;26.30;24.38;;;;;;;;;;5103585;28;20473;-88
2024/01/11 01:12:19;;;;;;;26.10;23.98;;;;;;;;;;5103484;28;20074;-89
2024/01/11 01:15:06;;;;;;;25.10;23.45;;;;;;;;;;5104445;28;20038;-91
2024/01/11 01:17:50;;;;;;;26.73;24.40;;;;;;;;;;5105656;28;20101;-89
2024/01/11 01:24:41;;;;;;;25.70;23.25;;;;;;;;;;5126814;28;20110;-90
2024/01/11 01:27:37;;;;;;;25.40;23.20;;;;;;;;;;5104750;28;20119;-90
2024/01/11 01:37:24;;;;;;;19.45;17.85;;;;;;;;;;5121762;28;20470;-90
2024/01/11 01:40:08;;;;;;;19.35;17.83;;;;;;;;;;5104546;28;20046;-90
2024/01/11 01:42:57;;;;;;;21.15;19.17;;;;;;;;;;5105152;28;20039;-89
2024/01/11 01:45:45;;;;;;;21.05;19.20;;;;;;;;;;5106373;28;20046;-91
2024/01/11 01:48:30;;;;;;;21.15;19.27;;;;;;;;;;5107411;28;20512;-89
2024/01/11 01:51:14;;;;;;;25.40;20.35;;;;;;;;;;5108623;28;20091;-90
2024/01/11 01:53:59;;;;;;;25.02;22.83;;;;;;;;;;5108781;28;20042;-89
2024/01/11 01:56:43;;;;;;;24.83;22.85;;;;;;;;;;5108092;28;20039;-91
2024/01/11 01:59:28;;;;;;;23.92;22.40;;;;;;;;;;5109113;28;20042;-89
2024/01/11 02:02:12;;;;;;;25.20;23.33;;;;;;;;;;5105638;28;20473;-88
2024/01/11 02:04:59;;;;;;;22.60;21.17;;;;;;;;;;5106970;28;20042;-87
2024/01/11 02:07:46;;;;;;;25.38;23.48;;;;;;;;;;5106263;28;20083;-91
2024/01/11 02:10:48;;;;;;;26.55;24.35;;;;;;;;;;5107084;28;20091;-89
2024/01/11 02:13:33;;;;;;;27.10;24.30;;;;;;;;;;5105186;28;20035;-89
2024/01/11 02:16:18;;;;;;;25.60;23.88;;;;;;;;;;5104605;28;20044;-89
2024/01/11 02:19:23;;;;;;;27.40;25.67;;;;;;;;;;5104249;28;20042;-88
2024/01/11 02:22:15;;;;;;;27.02;24.45;;;;;;;;;;5103571;28;20516;-91
2024/01/11 02:25:00;;;;;;;25.95;24.27;;;;;;;;;;5102705;28;20070;-93
2024/01/11 02:27:47;;;;;;;28.80;26.60;;;;;;;;;;5103944;28;20393;-92
2024/01/11 02:30:32;;;;;;;27.65;26.10;;;;;;;;;;5103319;28;20054;-91
2024/01/11 02:33:16;;;;;;;25.63;23.35;;;;;;;;;;5102828;28;20035;-89
2024/01/11 02:36:00;;;;;;;24.38;22.02;;;;;;;;;;5102066;28;20393;-87
2024/01/11 02:38:44;;;;;;;25.63;23.33;;;;;;;;;;5101906;28;20058;-88
2024/01/11 02:41:28;;;;;;;22.48;21.08;;;;;;;;;;5102929;28;20038;-89
2024/01/11 02:44:12;;;;;;;24.48;22.63;;;;;;;;;;5103194;28;20047;-89
2024/01/11 02:46:56;;;;;;;23.77;21.75;;;;;;;;;;5103299;28;20046;-90
2024/01/11 02:49:46;;;;;;;24.83;22.98;;;;;;;;;;5105279;28;20034;-89
2024/01/11 02:52:30;;;;;;;24.95;23.27;;;;;;;;;;5104383;28;20092;-90
2024/01/11 02:55:14;;;;;;;23.90;21.77;;;;;;;;;;5104064;28;20037;-89
2024/01/11 02:58:01;;;;;;;24.45;22.20;;;;;;;;;;5107725;28;20520;-90
2024/01/11 03:00:46;;;;;;;25.45;23.70;;;;;;;;;;5088754;28;20139;-90
2024/01/11 03:03:30;;;;;;;24.88;23.38;;;;;;;;;;5085175;28;20092;-89
2024/01/11 03:06:14;;;;;;;26.02;23.58;;;;;;;;;;5084862;28;20134;-89
2024/01/11 03:08:58;;;;;;;25.55;23.73;;;;;;;;;;5089330;28;20092;-89
2024/01/11 03:11:41;;;;;;;25.85;23.60;;;;;;;;;;5089087;28;20034;-91
2024/01/11 03:14:26;;;;;;;25.67;23.23;;;;;;;;;;5091757;28;20508;-89
2024/01/11 03:17:09;;;;;;;27.20;24.95;;;;;;;;;;5084589;28;20093;-89
2024/01/11 03:19:53;;;;;;;29.02;26.45;;;;;;;;;;5089837;28;20089;-91
2024/01/11 03:22:45;;;;;;;27.55;25.23;;;;;;;;;;5093652;28;20504;-90
2024/01/11 03:25:29;;;;;;;26.05;23.77;;;;;;;;;;5090065;28;20484;-89
2024/01/11 03:28:13;;;;;;;28.73;26.70;;;;;;;;;;5088477;28;20089;-89
2024/01/11 03:31:01;;;;;;;26.92;24.10;;;;;;;;;;5094981;28;20420;-90
2024/01/11 03:33:45;;;;;;;23.92;22.33;;;;;;;;;;5092076;28;20039;-89
2024/01/11 03:36:29;;;;;;;24.92;22.45;;;;;;;;;;5092737;28;20047;-89
2024/01/11 03:39:13;;;;;;;25.45;23.65;;;;;;;;;;5090255;28;20109;-91
2024/01/11 03:41:57;;;;;;;27.55;25.42;;;;;;;;;;5091368;28;20035;-90
2024/01/11 03:44:41;;;;;;;25.23;23.60;;;;;;;;;;5093511;28;20096;-89
2024/01/11 03:47:24;;;;;;;26.50;24.65;;;;;;;;;;5091048;28;20081;-89
2024/01/11 03:50:08;;;;;;;27.70;25.58;;;;;;;;;;5090559;28;20437;-89
2024/01/11 03:52:52;;;;;;;25.45;23.83;;;;;;;;;;5092995;28;20046;-89
2024/01/11 03:55:36;;;;;;;25.25;23.50;;;;;;;;;;5090125;28;20108;-90
2024/01/11 03:58:20;;;;;;;27.63;25.23;;;;;;;;;;5104894;28;20151;-91
2024/01/11 04:01:04;;;;;;;29.83;27.70;;;;;;;;;;5094740;28;20119;-89
2024/01/11 04:03:49;;;;;;;29.42;26.83;;;;;;;;;;5088494;28;20034;-89
2024/01/11 04:06:33;;;;;;;30.23;27.85;;;;;;;;;;5087326;28;20120;-89
2024/01/11 04:09:17;;;;;;;31.83;28.98;;;;;;;;;;5092443;28;20034;-90
2024/01/11 04:12:01;;;;;;;30.65;27.75;;;;;;;;;;5095520;28;20075;-89
2024/01/11 04:14:45;;;;;;;26.95;25.05;;;;;;;;;;5092208;28;20030;-89
2024/01/11 04:17:29;;;;;;;29.15;26.95;;;;;;;;;;5095136;28;20127;-89
2024/01/11 04:20:13;;;;;;;30.45;28.38;;;;;;;;;;5092776;28;20105;-90
2024/01/11 04:22:57;;;;;;;30.30;28.30;;;;;;;;;;5090013;28;20039;-89
2024/01/11 04:25:41;;;;;;;30.85;28.73;;;;;;;;;;5103411;28;20038;-89
2024/01/11 04:28:25;;;;;;;39.75;30.92;;;;;;;;;;5084361;28;20077;-90
2024/01/11 04:31:09;;;;;;;29.40;26.75;;;;;;;;;;5094493;28;20035;-89
2024/01/11 04:33:53;;;;;;;30.83;28.65;;;;;;;;;;5096488;28;20030;-90
2024/01/11 04:36:37;;;;;;;30.13;28.10;;;;;;;;;;5095651;28;20080;-89
2024/01/11 04:39:21;;;;;;;30.15;28.17;;;;;;;;;;5088717;28;20065;-90
2024/01/11 04:42:05;;;;;;;30.42;28.63;;;;;;;;;;5112868;28;20034;-91
2024/01/11 04:44:49;;;;;;;29.60;27.73;;;;;;;;;;5089052;28;20568;-89
2024/01/11 04:47:33;;;;;;;33.22;30.83;;;;;;;;;;5089851;28;20111;-90
2024/01/11 04:50:17;;;;;;;32.75;30.73;;;;;;;;;;5090578;27;20112;-90
2024/01/11 04:53:01;;;;;;;34.72;32.50;;;;;;;;;;5089593;28;20162;-89
2024/01/11 04:55:45;;;;;;;33.65;31.55;;;;;;;;;;5087681;28;20489;-90
2024/01/11 04:58:28;;;;;;;34.35;32.30;;;;;;;;;;5097939;28;20103;-89
2024/01/11 05:01:13;;;;;;;36.22;33.92;;;;;;;;;;5092440;28;20123;-89
2024/01/11 05:03:58;;;;;;;38.53;36.03;;;;;;;;;;5088123;28;20033;-89
2024/01/11 05:06:42;;;;;;;33.35;31.35;;;;;;;;;;5092140;28;20066;-90
2024/01/11 05:09:26;;;;;;;34.08;32.15;;;;;;;;;;5093731;28;20097;-88
2024/01/11 05:12:10;;;;;;;30.90;29.17;;;;;;;;;;5105902;28;20166;-91
2024/01/11 05:14:54;;;;;;;31.73;29.83;;;;;;;;;;5089567;28;20039;-88
2024/01/11 05:17:38;;;;;;;30.00;28.00;;;;;;;;;;5106161;28;20042;-90
2024/01/11 05:20:22;;;;;;;31.55;29.70;;;;;;;;;;5088315;28;20158;-89
2024/01/11 05:23:06;;;;;;;31.25;29.15;;;;;;;;;;5089750;28;20042;-88
2024/01/11 05:25:50;;;;;;;31.33;29.33;;;;;;;;;;5088759;28;20070;-88
2024/01/11 05:28:34;;;;;;;30.38;28.40;;;;;;;;;;5089004;28;20030;-88
2024/01/11 05:31:18;;;;;;;31.55;29.85;;;;;;;;;;5093797;28;20096;-88
2024/01/11 05:34:02;;;;;;;33.28;31.35;;;;;;;;;;5088996;28;20526;-90
2024/01/11 05:36:45;;;;;;;32.85;30.60;;;;;;;;;;5087833;28;20085;-89
2024/01/11 05:39:30;;;;;;;33.42;31.25;;;;;;;;;;5098229;28;20074;-90
2024/01/11 05:42:14;;;;;;;33.38;31.25;;;;;;;;;;5091874;28;20538;-89
2024/01/11 05:44:58;;;;;;;32.72;30.25;;;;;;;;;;5088672;28;20057;-90
2024/01/11 05:47:42;;;;;;;31.90;30.20;;;;;;;;;;5092243;28;20027;-90
2024/01/11 05:50:26;;;;;;;33.67;31.77;;;;;;;;;;5104481;28;20055;-89
2024/01/11 05:53:10;;;;;;;31.30;29.30;;;;;;;;;;5089062;28;20131;-89
2024/01/11 05:55:54;;;;;;;31.42;29.05;;;;;;;;;;5102516;28;20034;-91
2024/01/11 05:58:39;;;;;;;31.13;28.63;;;;;;;;;;5087502;28;20038;-90
2024/01/11 06:01:23;;;;;;;31.92;29.50;;;;;;;;;;5090007;28;20061;-90
2024/01/11 06:04:06;;;;;;;31.67;29.17;;;;;;;;;;5086404;28;20096;-90
2024/01/11 06:06:50;;;;;;;28.75;27.05;;;;;;;;;;5089791;28;20038;-90
2024/01/11 06:09:34;;;;;;;30.77;28.77;;;;;;;;;;5091066;28;20035;-91
2024/01/11 06:12:18;;;;;;;29.15;27.35;;;;;;;;;;5092366;28;20507;-91
2024/01/11 06:15:02;;;;;;;30.40;28.30;;;;;;;;;;5087475;28;20051;-90
2024/01/11 06:17:46;;;;;;;31.98;29.67;;;;;;;;;;5084183;28;20508;-90
2024/01/11 06:20:33;;;;;;;31.20;28.90;;;;;;;;;;5091668;28;20096;-89
2024/01/11 06:23:19;;;;;;;27.23;25.10;;;;;;;;;;5087466;28;20071;-90
2024/01/11 06:26:04;;;;;;;31.02;28.50;;;;;;;;;;5090151;28;20413;-90
2024/01/11 06:28:48;;;;;;;31.60;29.20;;;;;;;;;;5085381;28;20051;-91
2024/01/11 06:31:35;;;;;;;31.45;29.40;;;;;;;;;;5089780;28;20031;-90
2024/01/11 06:34:19;;;;;;;31.00;28.80;;;;;;;;;;5088007;28;20043;-90
2024/01/11 06:37:03;;;;;;;31.70;29.65;;;;;;;;;;5089189;28;20070;-90
2024/01/11 06:39:47;;;;;;;32.25;30.05;;;;;;;;;;5085385;28;20042;-89
2024/01/11 06:42:31;;;;;;;30.92;29.00;;;;;;;;;;5088628;28;20089;-90
2024/01/11 06:45:15;;;;;;;30.27;27.67;;;;;;;;;;5088015;28;20080;-90
2024/01/11 06:47:59;;;;;;;28.08;25.95;;;;;;;;;;5093770;28;20097;-89
2024/01/11 06:50:43;;;;;;;29.13;27.13;;;;;;;;;;5098635;28;20062;-89
2024/01/11 06:53:27;;;;;;;26.50;24.90;;;;;;;;;;5088131;28;20117;-90
2024/01/11 06:56:15;;;;;;;26.17;24.50;;;;;;;;;;5098288;28;20069;-89
2024/01/11 06:58:59;;;;;;;27.52;25.63;;;;;;;;;;5093898;28;20039;-89
2024/01/11 07:01:44;;;;;;;24.55;22.83;;;;;;;;;;5085752;28;20055;-89
2024/01/11 07:04:28;;;;;;;22.30;20.85;;;;;;;;;;5090964;28;20492;-90
2024/01/11 07:07:12;;;;;;;21.00;19.65;;;;;;;;;;5093647;28;20035;-89
2024/01/11 07:09:59;;;;;;;22.88;20.08;;;;;;;;;;5100139;28;20046;-89
2024/01/11 07:12:45;;;;;;;21.20;19.35;;;;;;;;;;5089886;28;20382;-90
2024/01/11 07:15:29;;;;;;;21.30;19.90;;;;;;;;;;5088436;28;20509;-89
2024/01/11 07:18:13;;;;;;;22.02;20.15;;;;;;;;;;5092461;28;20047;-89
2024/01/11 07:24:45;;;;;;;19.60;17.70;;;;;;;;;;5113034;28;20058;-88
2024/01/11 07:27:35;;;;;;;20.10;18.15;;;;;;;;;;5093037;28;20089;-88
2024/01/11 07:30:19;;;;;;;20.88;19.27;;;;;;;;;;5090287;28;20149;-88
2024/01/11 07:33:04;;;;;;;20.65;19.05;;;;;;;;;;5088797;28;20077;-88
2024/01/11 07:35:48;;;;;;;20.90;19.40;;;;;;;;;;5091585;28;20101;-90
2024/01/11 07:38:32;;;;;;;23.42;20.63;;;;;;;;;;5092462;28;20086;-90
2024/01/11 07:41:18;;;;;;;23.15;21.42;;;;;;;;;;5089140;28;20067;-89
2024/01/11 07:44:24;;;;;;;22.42;20.73;;;;;;;;;;5089503;28;20555;-89
2024/01/11 07:47:12;;;;;;;21.13;18.95;;;;;;;;;;5106841;28;20119;-89
2024/01/11 07:49:57;;;;;;;20.42;18.55;;;;;;;;;;5096492;28;20077;-89
2024/01/11 07:52:41;;;;;;;19.05;17.33;;;;;;;;;;5085921;28;20039;-89
2024/01/11 07:55:26;;;;;;;20.17;17.48;;;;;;;;;;5092217;28;20065;-89
2024/01/11 07:58:12;;;;;;;19.83;18.15;;;;;;;;;;5092499;28;20035;-89
2024/01/11 08:00:56;;;;;;;20.33;19.00;;;;;;;;;;5089315;28;20042;-89
2024/01/11 08:03:41;;;;;;;21.00;19.15;;;;;;;;;;5083296;28;20401;-89
2024/01/11 08:06:25;;;;;;;23.15;21.20;;;;;;;;;;5086980;28;20501;-89
2024/01/11 08:09:10;;;;;;;21.27;19.55;;;;;;;;;;5087119;28;20035;-89
2024/01/11 08:11:54;;;;;;;19.73;18.23;;;;;;;;;;5092733;28;20027;-90
2024/01/11 08:14:38;;;;;;;19.90;17.77;;;;;;;;;;5085989;28;20080;-90
2024/01/11 08:17:23;;;;;;;19.92;17.85;;;;;;;;;;5091485;28;20559;-91
2024/01/11 08:20:08;;;;;;;20.33;18.52;;;;;;;;;;5091312;28;20108;-91
2024/01/11 08:22:52;;;;;;;19.70;18.05;;;;;;;;;;5093778;28;20047;-90
2024/01/11 08:25:36;;;;;;;20.67;18.98;;;;;;;;;;5086506;28;20077;-90
2024/01/11 08:28:20;;;;;;;24.30;21.98;;;;;;;;;;5086267;28;20070;-90
2024/01/11 08:31:04;;;;;;;24.00;22.23;;;;;;;;;;5087167;28;20475;-85
2024/01/11 08:33:49;;;;;;;23.95;22.02;;;;;;;;;;5094933;28;20061;-87
2024/01/11 08:36:34;;;;;;;24.13;22.02;;;;;;;;;;5096270;28;20027;-90
2024/01/11 08:39:18;;;;;;;21.45;19.77;;;;;;;;;;5085671;28;20077;-86
2024/01/11 08:42:03;;;;;;;23.75;21.67;;;;;;;;;;5078093;28;20046;-86
2024/01/11 08:44:47;;;;;;;23.20;20.95;;;;;;;;;;5079896;28;20159;-87
2024/01/11 08:47:32;;;;;;;27.33;24.77;;;;;;;;;;5084783;28;20089;-89
2024/01/11 08:50:17;;;;;;;26.50;24.50;;;;;;;;;;5082883;28;20039;-89
2024/01/11 08:53:01;;;;;;;25.13;21.85;;;;;;;;;;5087641;28;20043;-88
2024/01/11 08:55:45;;;;;;;28.08;22.67;;;;;;;;;;5082224;28;20501;-86
2024/01/11 08:58:29;;;;;;;23.88;21.83;;;;;;;;;;5086676;28;20070;-89
2024/01/11 09:01:13;;;;;;;24.63;22.33;;;;;;;;;;5077223;28;20040;-88
2024/01/11 09:03:57;;;;;;;25.52;22.75;;;;;;;;;;5082207;28;20109;-88
2024/01/11 09:06:42;;;;;;;23.55;21.30;;;;;;;;;;5082611;28;20054;-89
2024/01/11 09:09:25;;;;;;;23.85;21.83;;;;;;;;;;5080612;28;20082;-89
2024/01/11 09:12:11;;;;;;;24.70;22.45;;;;;;;;;;5082143;28;20127;-90
2024/01/11 09:14:56;;;;;;;24.52;22.23;;;;;;;;;;5086748;28;20039;-90
2024/01/11 09:17:40;;;;;;;24.30;22.20;;;;;;;;;;5077278;28;20127;-88
2024/01/11 09:20:24;;;;;;;23.70;21.45;;;;;;;;;;5082660;28;20065;-90
2024/01/11 09:23:10;;;;;;;23.23;20.52;;;;;;;;;;5084656;28;20053;-91
2024/01/11 09:26:10;;;;;;;23.60;21.38;;;;;;;;;;5079395;28;20039;-88
2024/01/11 09:28:54;;;;;;;22.33;20.35;;;;;;;;;;5082508;28;20047;-87
2024/01/11 09:31:38;;;;;;;27.08;20.85;;;;;;;;;;5083548;28;20377;-88
2024/01/11 09:34:22;;;;;;;26.75;20.42;;;;;;;;;;5082155;28;20116;-89
2024/01/11 09:37:06;;;;;;;24.48;21.55;;;;;;;;;;5083206;28;20111;-88
2024/01/11 09:39:50;;;;;;;26.50;23.65;;;;;;;;;;5087240;28;20070;-90
2024/01/11 09:42:34;;;;;;;25.25;22.73;;;;;;;;;;5084780;28;20039;-87
2024/01/11 09:45:18;;;;;;;28.75;25.67;;;;;;;;;;5081626;28;20085;-89
2024/01/11 09:48:04;;;;;;;31.08;27.70;;;;;;;;;;5079484;28;20031;-89
2024/01/11 09:50:49;;;;;;;33.67;27.83;;;;;;;;;;5081868;28;20406;-89
2024/01/11 09:53:33;;;;;;;674.47;76.68;;;;;;;;;;5084994;28;20138;-88
2024/01/11 09:56:18;;;;;;;275.75;47.97;;;;;;;;;;5078638;28;20078;-87
2024/01/11 09:59:05;;;;;;;176.98;40.55;;;;;;;;;;5087819;28;20039;-89
2024/01/11 10:01:50;;;;;;;74.88;36.25;;;;;;;;;;5078953;28;20036;-88
2024/01/11 10:04:34;;;;;;;39.28;32.92;;;;;;;;;;5080565;28;20101;-88
2024/01/11 10:07:20;;;;;;;47.17;37.17;;;;;;;;;;5083783;28;20071;-89
2024/01/11 10:10:04;;;;;;;44.10;34.75;;;;;;;;;;5087006;28;20504;-88
2024/01/11 10:12:49;;;;;;;33.72;30.30;;;;;;;;;;5082180;28;20031;-88
2024/01/11 10:15:33;;;;;;;35.70;32.00;;;;;;;;;;5080551;28;20050;-89
2024/01/11 10:18:23;;;;;;;34.63;30.80;;;;;;;;;;5081900;28;20125;-87
2024/01/11 10:21:10;;;;;;;38.80;29.98;;;;;;;;;;5078910;28;20070;-87
2024/01/11 10:23:55;;;;;;;36.50;31.60;;;;;;;;;;5079890;28;20074;-88
2024/01/11 10:26:43;;;;;;;39.67;33.40;;;;;;;;;;5080639;28;20538;-87
2024/01/11 10:29:30;;;;;;;36.53;32.75;;;;;;;;;;5082990;28;20051;-87
2024/01/11 10:32:14;;;;;;;38.58;32.00;;;;;;;;;;5081174;28;20035;-87
2024/01/11 10:34:58;;;;;;;44.85;31.30;;;;;;;;;;5082662;28;20038;-88
2024/01/11 10:37:43;;;;;;;40.00;31.70;;;;;;;;;;5085648;28;20054;-90
2024/01/11 10:40:27;;;;;;;43.50;31.58;;;;;;;;;;5090492;28;20038;-88
2024/01/11 10:43:13;;;;;;;53.47;34.67;;;;;;;;;;5089942;28;20109;-90
2024/01/11 10:45:59;;;;;;;37.42;28.25;;;;;;;;;;5085632;28;20398;-89
2024/01/11 10:48:43;;;;;;;37.65;28.30;;;;;;;;;;5089645;28;20523;-90
2024/01/11 10:51:28;;;;;;;39.40;30.25;;;;;;;;;;5091662;28;20435;-88
2024/01/11 10:54:14;;;;;;;42.92;29.83;;;;;;;;;;5084822;28;20406;-86
2024/01/11 10:57:04;;;;;;;47.45;29.60;;;;;;;;;;5084939;28;20061;-89
2024/01/11 10:59:49;;;;;;;45.00;31.95;;;;;;;;;;5090646;28;20067;-84
2024/01/11 11:02:34;;;;;;;38.03;31.67;;;;;;;;;;5085435;28;20084;-91
2024/01/11 11:05:20;;;;;;;37.70;34.08;;;;;;;;;;5083943;28;20109;-88
2024/01/11 11:08:05;;;;;;;36.45;32.63;;;;;;;;;;5087685;28;20602;-89
2024/01/11 11:18:00;;;;;;;30.55;27.02;;;;;;;;;;5109137;28;20034;-88
2024/01/11 11:20:45;;;;;;;43.08;26.52;;;;;;;;;;5114031;28;20038;-87
2024/01/11 11:23:29;;;;;;;32.08;27.17;;;;;;;;;;5099360;28;20108;-87
2024/01/11 11:26:17;;;;;;;37.60;28.77;;;;;;;;;;5100135;28;20120;-87
2024/01/11 11:29:01;;;;;;;40.92;29.40;;;;;;;;;;5085241;28;20385;-87
2024/01/11 11:31:47;;;;;;;36.47;29.70;;;;;;;;;;5089256;28;20047;-89
2024/01/11 11:34:46;;;;;;;39.05;29.85;;;;;;;;;;5096745;28;20542;-89
2024/01/11 11:37:31;;;;;;;38.40;31.20;;;;;;;;;;5089300;28;20124;-89
2024/01/11 11:40:16;;;;;;;34.42;31.13;;;;;;;;;;5097343;28;20061;-88
2024/01/11 11:43:02;;;;;;;38.67;32.15;;;;;;;;;;5089272;28;20047;-90
2024/01/11 11:45:46;;;;;;;42.78;31.60;;;;;;;;;;5096825;28;20034;-87
2024/01/11 11:48:38;;;;;;;33.65;30.17;;;;;;;;;;5093796;28;20055;-88
2024/01/11 11:51:23;;;;;;;38.22;31.08;;;;;;;;;;5100761;28;20081;-89
2024/01/11 11:54:14;;;;;;;43.58;29.10;;;;;;;;;;5084325;28;20035;-91
2024/01/11 11:56:58;;;;;;;33.75;30.48;;;;;;;;;;5092486;28;20031;-90
2024/01/11 11:59:42;;;;;;;34.13;29.83;;;;;;;;;;5089515;28;20035;-90
2024/01/11 12:02:27;;;;;;;44.92;30.67;;;;;;;;;;5090027;28;20035;-88
2024/01/11 12:05:11;;;;;;;38.55;30.65;;;;;;;;;;5082953;28;20039;-87
2024/01/11 12:11:23;;;;;;;34.95;31.55;;;;;;;;;;5105897;28;20043;-86
2024/01/11 12:14:07;;;;;;;38.03;33.90;;;;;;;;;;5096813;28;20031;-86
2024/01/11 12:16:58;;;;;;;50.45;34.10;;;;;;;;;;5083214;28;20082;-85
2024/01/11 12:19:42;;;;;;;36.83;32.15;;;;;;;;;;5085767;28;20076;-85
2024/01/11 12:22:26;;;;;;;41.22;31.65;;;;;;;;;;5098233;28;20081;-85
2024/01/11 12:25:10;;;;;;;34.92;31.15;;;;;;;;;;5084896;28;20066;-84
2024/01/11 12:27:57;;;;;;;38.40;30.92;;;;;;;;;;5081629;28;20058;-88
2024/01/11 12:30:42;;;;;;;37.45;30.98;;;;;;;;;;5088455;28;20035;-88
2024/01/11 12:33:27;;;;;;;37.78;33.13;;;;;;;;;;5091392;28;20394;-87
2024/01/11 12:36:11;;;;;;;37.45;30.80;;;;;;;;;;5083403;28;20101;-87
2024/01/11 12:38:55;;;;;;;35.80;30.35;;;;;;;;;;5083977;28;20047;-88
2024/01/11 12:41:39;;;;;;;37.20;30.23;;;;;;;;;;5102853;27;20394;-88
2024/01/11 12:44:24;;;;;;;39.47;35.22;;;;;;;;;;5100192;28;20120;-87
2024/01/11 12:47:08;;;;;;;40.42;32.78;;;;;;;;;;5086183;28;20383;-86
2024/01/11 12:49:52;;;;;;;37.05;32.78;;;;;;;;;;5082300;28;20039;-89
2024/01/11 12:52:36;;;;;;;38.42;30.05;;;;;;;;;;5078755;28;20039;-86
2024/01/11 12:55:20;;;;;;;36.70;29.50;;;;;;;;;;5085776;28;20039;-87
2024/01/11 12:58:05;;;;;;;38.58;29.42;;;;;;;;;;5081990;28;20096;-87
2024/01/11 13:00:49;;;;;;;38.63;25.38;;;;;;;;;;5101301;28;20447;-88
2024/01/11 13:03:34;;;;;;;24.50;21.80;;;;;;;;;;5085891;28;20085;-88
2024/01/11 13:06:19;;;;;;;30.42;21.92;;;;;;;;;;5086056;28;20622;-86
2024/01/11 13:09:03;;;;;;;31.60;19.83;;;;;;;;;;5083213;28;20038;-87
2024/01/11 13:11:48;;;;;;;22.33;18.67;;;;;;;;;;5099508;28;20069;-86
2024/01/11 13:14:32;;;;;;;39.33;21.08;;;;;;;;;;5085310;28;20066;-86
2024/01/11 13:17:16;;;;;;;27.70;20.25;;;;;;;;;;5089099;28;20050;-86
2024/01/11 13:20:03;;;;;;;34.15;21.85;;;;;;;;;;5089655;28;20053;-86
2024/01/11 13:22:47;;;;;;;26.67;20.85;;;;;;;;;;5078528;28;20120;-87
2024/01/11 13:25:31;;;;;;;29.20;20.30;;;;;;;;;;5083998;28;20039;-86
2024/01/11 13:28:15;;;;;;;35.28;21.75;;;;;;;;;;5101214;28;20042;-87
2024/01/11 13:31:00;;;;;;;24.27;20.80;;;;;;;;;;5086483;28;20497;-87
2024/01/11 13:33:44;;;;;;;43.63;22.27;;;;;;;;;;5090349;28;20393;-88
2024/01/11 13:36:28;;;;;;;27.00;22.42;;;;;;;;;;5086388;28;20035;-87
2024/01/11 13:39:12;;;;;;;26.65;20.65;;;;;;;;;;5078047;28;20067;-87
2024/01/11 13:41:56;;;;;;;24.33;19.27;;;;;;;;;;5101644;27;20026;-87
2024/01/11 13:44:41;;;;;;;29.02;18.25;;;;;;;;;;5095646;28;20042;-86
2024/01/11 13:47:25;;;;;;;25.00;19.02;;;;;;;;;;5085220;28;20043;-87
2024/01/11 13:50:09;;;;;;;29.27;20.45;;;;;;;;;;5085288;28;20067;-87
2024/01/11 13:52:53;;;;;;;23.48;19.17;;;;;;;;;;5096111;28;20393;-88
2024/01/11 13:55:38;;;;;;;32.08;20.08;;;;;;;;;;5086483;28;20034;-86
2024/01/11 13:58:22;;;;;;;27.77;18.27;;;;;;;;;;5085004;28;20386;-88
2024/01/11 14:01:07;;;;;;;22.95;19.77;;;;;;;;;;5103303;28;20035;-88
2024/01/11 14:03:51;;;;;;;27.40;22.33;;;;;;;;;;5085183;28;20231;-87
2024/01/11 14:06:35;;;;;;;29.33;23.00;;;;;;;;;;5101364;28;20047;-87
2024/01/11 14:09:19;;;;;;;23.23;20.92;;;;;;;;;;5100506;28;20094;-86
2024/01/11 14:12:03;;;;;;;24.48;20.80;;;;;;;;;;5082766;28;20039;-88
2024/01/11 14:14:48;;;;;;;24.77;20.85;;;;;;;;;;5109116;28;20073;-89
2024/01/11 14:17:33;;;;;;;27.75;20.92;;;;;;;;;;5107703;28;20050;-89
2024/01/11 14:20:17;;;;;;;25.50;22.80;;;;;;;;;;5095821;28;20035;-90
2024/01/11 14:23:01;;;;;;;26.50;21.65;;;;;;;;;;5096121;28;20045;-88
2024/01/11 14:25:59;;;;;;;38.60;23.48;;;;;;;;;;5100651;28;20061;-89
2024/01/11 14:28:43;;;;;;;28.00;24.73;;;;;;;;;;5099458;28;20034;-91
2024/01/11 14:42:45;;;;;;;26.00;23.85;;;;;;;;;;5068798;28;20078;-89
2024/01/11 14:52:31;;;;;;;30.98;23.15;;;;;;;;;;5075122;28;20033;-89
2024/01/11 14:55:36;;;;;;;;;;;;;;;;;;;;;
2024/01/11 15:01:59;;;;;;;31.83;23.38;;;;;;;;;;5084123;28;20047;-91
2024/01/11 15:04:43;;;;;;;28.65;23.15;;;;;;;;;;5070345;28;20091;-89
2024/01/11 15:07:30;;;;;;;31.60;24.10;;;;;;;;;;5063973;28;20437;-91
2024/01/11 15:10:14;;;;;;;32.90;24.80;;;;;;;;;;5062556;28;20048;-90
2024/01/11 15:12:58;;;;;;;29.35;23.58;;;;;;;;;;5067171;28;20382;-90
2024/01/11 15:15:42;;;;;;;36.97;23.27;;;;;;;;;;5062667;28;20035;-90
2024/01/11 15:18:26;;;;;;;29.27;22.42;;;;;;;;;;5064540;28;20032;-92
2024/01/11 15:21:10;;;;;;;28.95;23.60;;;;;;;;;;5063489;28;20039;-89
2024/01/11 15:23:59;;;;;;;35.42;25.92;;;;;;;;;;5063675;28;20441;-90
2024/01/11 15:26:43;;;;;;;36.17;25.52;;;;;;;;;;5059862;28;20072;-89
2024/01/11 15:29:27;;;;;;;33.40;27.45;;;;;;;;;;5068735;28;20052;-88
2024/01/11 15:32:11;;;;;;;30.75;26.48;;;;;;;;;;5062877;28;20028;-91
2024/01/11 15:34:56;;;;;;;29.02;26.25;;;;;;;;;;5057165;28;20031;-88
2024/01/11 15:37:41;;;;;;;27.20;24.27;;;;;;;;;;5056071;28;20124;-90
2024/01/11 15:40:30;;;;;;;27.65;23.80;;;;;;;;;;5077492;28;20109;-89
2024/01/11 15:43:14;;;;;;;28.23;24.23;;;;;;;;;;5091569;28;20177;-88
2024/01/11 15:46:06;;;;;;;28.00;25.45;;;;;;;;;;5095936;28;20439;-91
2024/01/11 15:48:51;;;;;;;27.80;25.15;;;;;;;;;;5095981;28;20501;-89
2024/01/11 15:51:35;;;;;;;29.38;26.42;;;;;;;;;;5085838;28;20035;-91
2024/01/11 15:54:20;;;;;;;28.50;25.88;;;;;;;;;;5084913;28;20032;-89
2024/01/11 15:57:04;;;;;;;28.35;25.63;;;;;;;;;;5092754;28;20500;-85
2024/01/11 15:59:48;;;;;;;28.52;26.05;;;;;;;;;;5076626;28;20083;-92
2024/01/11 16:02:32;;;;;;;26.83;24.50;;;;;;;;;;5074593;28;20047;-87
2024/01/11 16:05:16;;;;;;;23.55;21.25;;;;;;;;;;5074549;28;20564;-87
2024/01/11 16:08:03;;;;;;;23.38;20.92;;;;;;;;;;5080316;28;20039;-88
2024/01/11 16:10:47;;;;;;;24.73;22.20;;;;;;;;;;5074338;28;20040;-86
2024/01/11 16:13:31;;;;;;;29.58;20.92;;;;;;;;;;5074601;28;20074;-90
2024/01/11 16:16:16;;;;;;;27.23;20.20;;;;;;;;;;5077434;28;20026;-89
2024/01/11 16:19:02;;;;;;;21.08;18.80;;;;;;;;;;5077224;28;20050;-89
2024/01/11 16:21:47;;;;;;;21.80;18.95;;;;;;;;;;5077734;28;20030;-87
2024/01/11 16:24:30;;;;;;;23.30;19.42;;;;;;;;;;5082790;28;20086;-89
2024/01/11 16:27:14;;;;;;;21.75;19.15;;;;;;;;;;5077480;28;20120;-84
2024/01/11 16:29:58;;;;;;;25.13;20.08;;;;;;;;;;5080207;28;20039;-88
2024/01/11 16:32:43;;;;;;;30.05;19.77;;;;;;;;;;5080888;28;21358;-86
2024/01/11 16:35:27;;;;;;;24.63;20.13;;;;;;;;;;5084914;28;20106;-86
2024/01/11 16:38:11;;;;;;;26.10;20.88;;;;;;;;;;5079154;28;20063;-86
2024/01/11 16:40:55;;;;;;;23.25;19.27;;;;;;;;;;5080760;28;20054;-86
2024/01/11 16:43:39;;;;;;;23.73;21.23;;;;;;;;;;5078172;28;20098;-85
2024/01/11 16:46:23;;;;;;;26.77;21.08;;;;;;;;;;5084066;28;20077;-86
2024/01/11 16:49:09;;;;;;;24.10;20.88;;;;;;;;;;5075584;28;20063;-85
2024/01/11 16:51:53;;;;;;;26.67;21.42;;;;;;;;;;5076560;28;20034;-84
2024/01/11 16:54:38;;;;;;;30.15;20.13;;;;;;;;;;5079048;28;20043;-88
2024/01/11 16:57:22;;;;;;;26.20;20.83;;;;;;;;;;5079491;28;20047;-86